sensor_id;sensor_type;location;lat;lon;timestamp;P1;durP1;ratioP1;P2;durP2;ratioP2
36355;SDS011;22384;54.302;18.596;2023-04-24T00:00:55;23.13;;;16.10;;
36355;SDS011;22384;54.302;18.596;2023-04-24T00:03:22;22.58;;;15.15;;
36355;SDS011;22384;54.302;18.596;2023-04-24T00:05:48;21.70;;;14.77;;
36355;SDS011;22384;54.302;18.596;2023-04-24T00:08:14;25.38;;;15.60;;
36355;SDS011;22384;54.302;18.596;2023-04-24T00:10:40;24.35;;;15.07;;
36355;SDS011;22384;54.302;18.596;2023-04-24T00:13:06;29.70;;;16.25;;
36355;SDS011;22384;54.302;18.596;2023-04-24T00:15:32;23.20;;;16.20;;
36355;SDS011;22384;54.302;18.596;2023-04-24T00:17:59;24.25;;;15.52;;
36355;SDS011;22384;54.302;18.596;2023-04-24T00:20:26;20.63;;;16.02;;
36355;SDS011;22384;54.302;18.596;2023-04-24T00:22:53;21.33;;;14.57;;
36355;SDS011;22384;54.302;18.596;2023-04-24T00:25:19;24.73;;;16.15;;
36355;SDS011;22384;54.302;18.596;2023-04-24T00:27:45;24.05;;;15.38;;
36355;SDS011;22384;54.302;18.596;2023-04-24T00:30:11;19.60;;;15.50;;
36355;SDS011;22384;54.302;18.596;2023-04-24T00:32:37;23.73;;;15.65;;
36355;SDS011;22384;54.302;18.596;2023-04-24T00:35:03;24.17;;;14.88;;
36355;SDS011;22384;54.302;18.596;2023-04-24T00:37:30;20.52;;;15.32;;
36355;SDS011;22384;54.302;18.596;2023-04-24T00:39:57;19.88;;;14.73;;
36355;SDS011;22384;54.302;18.596;2023-04-24T00:42:23;23.85;;;14.55;;
36355;SDS011;22384;54.302;18.596;2023-04-24T00:44:49;19.23;;;14.63;;
36355;SDS011;22384;54.302;18.596;2023-04-24T00:47:15;19.42;;;13.95;;
36355;SDS011;22384;54.302;18.596;2023-04-24T00:49:42;18.67;;;14.00;;
36355;SDS011;22384;54.302;18.596;2023-04-24T00:52:08;22.27;;;14.57;;
36355;SDS011;22384;54.302;18.596;2023-04-24T00:54:34;20.60;;;14.50;;
36355;SDS011;22384;54.302;18.596;2023-04-24T00:57:01;21.23;;;15.18;;
36355;SDS011;22384;54.302;18.596;2023-04-24T00:59:28;23.60;;;16.85;;
36355;SDS011;22384;54.302;18.596;2023-04-24T01:01:54;24.13;;;17.25;;
36355;SDS011;22384;54.302;18.596;2023-04-24T01:04:21;27.83;;;18.10;;
36355;SDS011;22384;54.302;18.596;2023-04-24T01:06:47;25.45;;;18.13;;
36355;SDS011;22384;54.302;18.596;2023-04-24T01:09:14;24.23;;;18.25;;
36355;SDS011;22384;54.302;18.596;2023-04-24T01:11:41;25.05;;;18.17;;
36355;SDS011;22384;54.302;18.596;2023-04-24T01:14:10;32.60;;;19.88;;
36355;SDS011;22384;54.302;18.596;2023-04-24T01:16:36;27.00;;;18.58;;
36355;SDS011;22384;54.302;18.596;2023-04-24T01:19:03;24.98;;;18.73;;
36355;SDS011;22384;54.302;18.596;2023-04-24T01:21:29;28.33;;;19.50;;
36355;SDS011;22384;54.302;18.596;2023-04-24T01:23:56;27.92;;;19.95;;
36355;SDS011;22384;54.302;18.596;2023-04-24T01:26:22;31.25;;;21.08;;
36355;SDS011;22384;54.302;18.596;2023-04-24T01:28:50;28.42;;;20.05;;
36355;SDS011;22384;54.302;18.596;2023-04-24T01:31:17;30.02;;;20.13;;
36355;SDS011;22384;54.302;18.596;2023-04-24T01:33:43;25.45;;;19.65;;
36355;SDS011;22384;54.302;18.596;2023-04-24T01:36:12;27.95;;;20.92;;
36355;SDS011;22384;54.302;18.596;2023-04-24T01:38:39;31.23;;;20.25;;
36355;SDS011;22384;54.302;18.596;2023-04-24T01:41:05;29.95;;;21.05;;
36355;SDS011;22384;54.302;18.596;2023-04-24T01:43:31;31.05;;;20.27;;
36355;SDS011;22384;54.302;18.596;2023-04-24T01:45:57;29.35;;;20.52;;
36355;SDS011;22384;54.302;18.596;2023-04-24T01:48:23;34.53;;;21.13;;
36355;SDS011;22384;54.302;18.596;2023-04-24T01:50:49;29.95;;;21.30;;
36355;SDS011;22384;54.302;18.596;2023-04-24T01:53:15;32.00;;;21.33;;
36355;SDS011;22384;54.302;18.596;2023-04-24T01:55:41;30.65;;;21.70;;
36355;SDS011;22384;54.302;18.596;2023-04-24T01:58:07;36.53;;;21.15;;
36355;SDS011;22384;54.302;18.596;2023-04-24T02:00:34;31.70;;;20.90;;
36355;SDS011;22384;54.302;18.596;2023-04-24T02:03:00;31.50;;;21.70;;
36355;SDS011;22384;54.302;18.596;2023-04-24T02:05:27;30.95;;;21.10;;
36355;SDS011;22384;54.302;18.596;2023-04-24T02:07:53;29.27;;;20.83;;
36355;SDS011;22384;54.302;18.596;2023-04-24T02:10:19;30.27;;;20.40;;
36355;SDS011;22384;54.302;18.596;2023-04-24T02:12:45;27.52;;;20.92;;
36355;SDS011;22384;54.302;18.596;2023-04-24T02:15:11;32.90;;;21.83;;
36355;SDS011;22384;54.302;18.596;2023-04-24T02:17:37;32.88;;;20.33;;
36355;SDS011;22384;54.302;18.596;2023-04-24T02:20:07;28.33;;;19.15;;
36355;SDS011;22384;54.302;18.596;2023-04-24T02:22:33;31.23;;;18.45;;
36355;SDS011;22384;54.302;18.596;2023-04-24T02:25:00;27.50;;;19.00;;
36355;SDS011;22384;54.302;18.596;2023-04-24T02:27:26;29.67;;;19.02;;
36355;SDS011;22384;54.302;18.596;2023-04-24T02:29:52;28.02;;;18.42;;
36355;SDS011;22384;54.302;18.596;2023-04-24T02:32:18;30.60;;;18.50;;
36355;SDS011;22384;54.302;18.596;2023-04-24T02:34:44;29.05;;;19.40;;
36355;SDS011;22384;54.302;18.596;2023-04-24T02:37:10;28.80;;;18.85;;
36355;SDS011;22384;54.302;18.596;2023-04-24T02:39:36;25.95;;;16.67;;
36355;SDS011;22384;54.302;18.596;2023-04-24T02:42:02;25.45;;;17.65;;
36355;SDS011;22384;54.302;18.596;2023-04-24T02:44:28;27.83;;;19.05;;
36355;SDS011;22384;54.302;18.596;2023-04-24T02:46:54;23.52;;;16.38;;
36355;SDS011;22384;54.302;18.596;2023-04-24T02:49:20;28.00;;;18.42;;
36355;SDS011;22384;54.302;18.596;2023-04-24T02:51:46;28.98;;;17.05;;
36355;SDS011;22384;54.302;18.596;2023-04-24T02:54:12;25.77;;;16.70;;
36355;SDS011;22384;54.302;18.596;2023-04-24T02:56:38;26.83;;;17.08;;
36355;SDS011;22384;54.302;18.596;2023-04-24T02:59:04;26.98;;;17.52;;
36355;SDS011;22384;54.302;18.596;2023-04-24T03:01:30;26.80;;;17.35;;
36355;SDS011;22384;54.302;18.596;2023-04-24T03:03:56;26.50;;;17.35;;
36355;SDS011;22384;54.302;18.596;2023-04-24T03:06:23;23.52;;;16.58;;
36355;SDS011;22384;54.302;18.596;2023-04-24T03:08:49;23.98;;;16.92;;
36355;SDS011;22384;54.302;18.596;2023-04-24T03:11:15;24.42;;;17.45;;
36355;SDS011;22384;54.302;18.596;2023-04-24T03:13:41;25.35;;;17.35;;
36355;SDS011;22384;54.302;18.596;2023-04-24T03:16:07;21.50;;;15.38;;
36355;SDS011;22384;54.302;18.596;2023-04-24T03:18:33;23.42;;;16.20;;
36355;SDS011;22384;54.302;18.596;2023-04-24T03:20:59;22.33;;;14.70;;
36355;SDS011;22384;54.302;18.596;2023-04-24T03:23:25;24.45;;;14.90;;
36355;SDS011;22384;54.302;18.596;2023-04-24T03:25:51;31.13;;;14.80;;
36355;SDS011;22384;54.302;18.596;2023-04-24T03:28:17;22.92;;;14.15;;
36355;SDS011;22384;54.302;18.596;2023-04-24T03:30:43;25.40;;;15.27;;
36355;SDS011;22384;54.302;18.596;2023-04-24T03:33:09;21.02;;;13.52;;
36355;SDS011;22384;54.302;18.596;2023-04-24T03:35:35;21.30;;;14.23;;
36355;SDS011;22384;54.302;18.596;2023-04-24T03:38:01;20.95;;;13.57;;
36355;SDS011;22384;54.302;18.596;2023-04-24T03:40:29;19.38;;;14.00;;
36355;SDS011;22384;54.302;18.596;2023-04-24T03:42:55;21.10;;;14.55;;
36355;SDS011;22384;54.302;18.596;2023-04-24T03:45:21;21.20;;;12.95;;
36355;SDS011;22384;54.302;18.596;2023-04-24T03:47:47;21.45;;;13.20;;
36355;SDS011;22384;54.302;18.596;2023-04-24T03:50:13;22.65;;;13.77;;
36355;SDS011;22384;54.302;18.596;2023-04-24T03:52:39;22.55;;;13.77;;
36355;SDS011;22384;54.302;18.596;2023-04-24T03:55:06;18.45;;;12.40;;
36355;SDS011;22384;54.302;18.596;2023-04-24T03:57:32;29.00;;;13.45;;
36355;SDS011;22384;54.302;18.596;2023-04-24T03:59:58;21.13;;;13.57;;
36355;SDS011;22384;54.302;18.596;2023-04-24T04:02:24;21.60;;;13.43;;
36355;SDS011;22384;54.302;18.596;2023-04-24T04:04:50;19.48;;;13.77;;
36355;SDS011;22384;54.302;18.596;2023-04-24T04:07:16;19.88;;;12.98;;
36355;SDS011;22384;54.302;18.596;2023-04-24T04:09:42;20.00;;;13.65;;
36355;SDS011;22384;54.302;18.596;2023-04-24T04:12:08;19.88;;;13.50;;
36355;SDS011;22384;54.302;18.596;2023-04-24T04:14:34;28.17;;;15.52;;
36355;SDS011;22384;54.302;18.596;2023-04-24T04:17:00;21.33;;;14.90;;
36355;SDS011;22384;54.302;18.596;2023-04-24T04:19:26;25.70;;;15.32;;
36355;SDS011;22384;54.302;18.596;2023-04-24T04:21:52;28.65;;;15.25;;
36355;SDS011;22384;54.302;18.596;2023-04-24T04:24:21;29.10;;;14.88;;
36355;SDS011;22384;54.302;18.596;2023-04-24T04:26:47;22.17;;;14.52;;
36355;SDS011;22384;54.302;18.596;2023-04-24T04:29:16;21.73;;;14.15;;
36355;SDS011;22384;54.302;18.596;2023-04-24T04:31:43;25.73;;;15.60;;
36355;SDS011;22384;54.302;18.596;2023-04-24T04:34:09;28.10;;;17.45;;
36355;SDS011;22384;54.302;18.596;2023-04-24T04:36:36;31.50;;;18.45;;
36355;SDS011;22384;54.302;18.596;2023-04-24T04:39:05;28.65;;;17.38;;
36355;SDS011;22384;54.302;18.596;2023-04-24T04:41:31;34.42;;;17.83;;
36355;SDS011;22384;54.302;18.596;2023-04-24T04:44:00;32.60;;;17.88;;
36355;SDS011;22384;54.302;18.596;2023-04-24T04:46:26;32.38;;;17.70;;
36355;SDS011;22384;54.302;18.596;2023-04-24T04:48:53;29.52;;;17.45;;
36355;SDS011;22384;54.302;18.596;2023-04-24T04:51:19;30.38;;;17.65;;
36355;SDS011;22384;54.302;18.596;2023-04-24T04:53:45;30.65;;;18.20;;
36355;SDS011;22384;54.302;18.596;2023-04-24T04:56:11;32.67;;;19.00;;
36355;SDS011;22384;54.302;18.596;2023-04-24T04:58:37;27.85;;;17.27;;
36355;SDS011;22384;54.302;18.596;2023-04-24T05:01:03;28.90;;;18.48;;
36355;SDS011;22384;54.302;18.596;2023-04-24T05:03:29;27.70;;;16.48;;
36355;SDS011;22384;54.302;18.596;2023-04-24T05:05:56;28.50;;;17.15;;
36355;SDS011;22384;54.302;18.596;2023-04-24T05:08:23;27.92;;;16.77;;
36355;SDS011;22384;54.302;18.596;2023-04-24T05:10:49;29.63;;;15.88;;
36355;SDS011;22384;54.302;18.596;2023-04-24T05:13:15;23.70;;;13.85;;
36355;SDS011;22384;54.302;18.596;2023-04-24T05:15:41;23.38;;;14.88;;
36355;SDS011;22384;54.302;18.596;2023-04-24T05:18:07;23.55;;;14.77;;
36355;SDS011;22384;54.302;18.596;2023-04-24T05:20:33;20.38;;;13.05;;
36355;SDS011;22384;54.302;18.596;2023-04-24T05:22:59;25.67;;;13.35;;
36355;SDS011;22384;54.302;18.596;2023-04-24T05:25:25;20.77;;;14.35;;
36355;SDS011;22384;54.302;18.596;2023-04-24T05:27:51;22.77;;;13.80;;
36355;SDS011;22384;54.302;18.596;2023-04-24T05:30:18;19.02;;;12.43;;
36355;SDS011;22384;54.302;18.596;2023-04-24T05:32:44;22.50;;;13.80;;
36355;SDS011;22384;54.302;18.596;2023-04-24T05:35:11;18.67;;;12.73;;
36355;SDS011;22384;54.302;18.596;2023-04-24T05:37:37;24.35;;;14.43;;
36355;SDS011;22384;54.302;18.596;2023-04-24T05:40:03;24.15;;;13.25;;
36355;SDS011;22384;54.302;18.596;2023-04-24T05:42:30;20.45;;;13.55;;
36355;SDS011;22384;54.302;18.596;2023-04-24T05:44:57;21.48;;;12.63;;
36355;SDS011;22384;54.302;18.596;2023-04-24T05:47:23;21.35;;;12.00;;
36355;SDS011;22384;54.302;18.596;2023-04-24T05:49:49;24.73;;;11.82;;
36355;SDS011;22384;54.302;18.596;2023-04-24T05:52:15;21.80;;;12.25;;
36355;SDS011;22384;54.302;18.596;2023-04-24T05:54:41;17.20;;;9.57;;
36355;SDS011;22384;54.302;18.596;2023-04-24T05:57:07;15.57;;;10.13;;
36355;SDS011;22384;54.302;18.596;2023-04-24T05:59:33;18.00;;;10.15;;
36355;SDS011;22384;54.302;18.596;2023-04-24T06:01:59;21.55;;;9.93;;
36355;SDS011;22384;54.302;18.596;2023-04-24T06:04:25;16.42;;;10.18;;
36355;SDS011;22384;54.302;18.596;2023-04-24T06:06:52;26.25;;;11.20;;
36355;SDS011;22384;54.302;18.596;2023-04-24T06:09:21;21.27;;;12.18;;
36355;SDS011;22384;54.302;18.596;2023-04-24T06:11:47;18.25;;;12.43;;
36355;SDS011;22384;54.302;18.596;2023-04-24T06:14:13;19.52;;;11.98;;
36355;SDS011;22384;54.302;18.596;2023-04-24T06:16:41;18.92;;;11.18;;
36355;SDS011;22384;54.302;18.596;2023-04-24T06:19:07;21.50;;;11.45;;
36355;SDS011;22384;54.302;18.596;2023-04-24T06:21:33;19.50;;;11.20;;
36355;SDS011;22384;54.302;18.596;2023-04-24T06:23:59;18.88;;;10.25;;
36355;SDS011;22384;54.302;18.596;2023-04-24T06:26:25;23.02;;;11.88;;
36355;SDS011;22384;54.302;18.596;2023-04-24T06:28:52;22.20;;;10.43;;
36355;SDS011;22384;54.302;18.596;2023-04-24T06:31:19;27.55;;;10.98;;
36355;SDS011;22384;54.302;18.596;2023-04-24T06:33:45;15.45;;;10.23;;
36355;SDS011;22384;54.302;18.596;2023-04-24T06:36:11;22.02;;;10.82;;
36355;SDS011;22384;54.302;18.596;2023-04-24T06:38:37;21.60;;;11.15;;
36355;SDS011;22384;54.302;18.596;2023-04-24T06:41:03;19.77;;;11.02;;
36355;SDS011;22384;54.302;18.596;2023-04-24T06:43:30;18.65;;;11.15;;
36355;SDS011;22384;54.302;18.596;2023-04-24T06:45:57;16.27;;;10.93;;
36355;SDS011;22384;54.302;18.596;2023-04-24T06:48:23;17.42;;;12.52;;
36355;SDS011;22384;54.302;18.596;2023-04-24T06:50:50;17.65;;;10.65;;
36355;SDS011;22384;54.302;18.596;2023-04-24T06:53:16;18.42;;;10.82;;
36355;SDS011;22384;54.302;18.596;2023-04-24T06:55:42;30.63;;;18.85;;
36355;SDS011;22384;54.302;18.596;2023-04-24T06:58:10;25.52;;;16.92;;
36355;SDS011;22384;54.302;18.596;2023-04-24T07:00:36;20.02;;;13.93;;
36355;SDS011;22384;54.302;18.596;2023-04-24T07:03:02;18.88;;;12.45;;
36355;SDS011;22384;54.302;18.596;2023-04-24T07:05:30;19.60;;;11.88;;
36355;SDS011;22384;54.302;18.596;2023-04-24T07:07:56;18.52;;;11.80;;
36355;SDS011;22384;54.302;18.596;2023-04-24T07:10:25;19.10;;;11.35;;
36355;SDS011;22384;54.302;18.596;2023-04-24T07:12:53;25.85;;;12.57;;
36355;SDS011;22384;54.302;18.596;2023-04-24T07:15:19;26.95;;;12.13;;
36355;SDS011;22384;54.302;18.596;2023-04-24T07:17:45;19.30;;;11.68;;
36355;SDS011;22384;54.302;18.596;2023-04-24T07:20:11;18.52;;;11.10;;
36355;SDS011;22384;54.302;18.596;2023-04-24T07:22:39;17.73;;;11.45;;
36355;SDS011;22384;54.302;18.596;2023-04-24T07:25:05;22.83;;;11.15;;
36355;SDS011;22384;54.302;18.596;2023-04-24T07:27:32;17.50;;;11.23;;
36355;SDS011;22384;54.302;18.596;2023-04-24T07:29:58;18.38;;;11.05;;
36355;SDS011;22384;54.302;18.596;2023-04-24T07:32:24;16.85;;;10.23;;
36355;SDS011;22384;54.302;18.596;2023-04-24T07:34:50;17.38;;;10.55;;
36355;SDS011;22384;54.302;18.596;2023-04-24T07:37:16;20.92;;;10.65;;
36355;SDS011;22384;54.302;18.596;2023-04-24T07:39:42;18.38;;;10.15;;
36355;SDS011;22384;54.302;18.596;2023-04-24T07:42:08;17.10;;;10.20;;
36355;SDS011;22384;54.302;18.596;2023-04-24T07:44:34;17.33;;;9.65;;
36355;SDS011;22384;54.302;18.596;2023-04-24T07:47:01;17.63;;;11.07;;
36355;SDS011;22384;54.302;18.596;2023-04-24T07:49:27;19.30;;;11.73;;
36355;SDS011;22384;54.302;18.596;2023-04-24T07:51:53;19.02;;;10.82;;
36355;SDS011;22384;54.302;18.596;2023-04-24T07:54:19;17.02;;;11.07;;
36355;SDS011;22384;54.302;18.596;2023-04-24T07:56:45;18.27;;;11.13;;
36355;SDS011;22384;54.302;18.596;2023-04-24T07:59:11;18.48;;;11.25;;
36355;SDS011;22384;54.302;18.596;2023-04-24T08:01:37;21.75;;;11.50;;
36355;SDS011;22384;54.302;18.596;2023-04-24T08:04:03;22.48;;;11.43;;
36355;SDS011;22384;54.302;18.596;2023-04-24T08:06:29;19.35;;;12.68;;
36355;SDS011;22384;54.302;18.596;2023-04-24T08:08:57;18.77;;;11.30;;
36355;SDS011;22384;54.302;18.596;2023-04-24T08:11:23;15.43;;;10.30;;
36355;SDS011;22384;54.302;18.596;2023-04-24T08:13:49;20.27;;;11.93;;
36355;SDS011;22384;54.302;18.596;2023-04-24T08:16:15;16.33;;;10.13;;
36355;SDS011;22384;54.302;18.596;2023-04-24T08:18:41;16.42;;;11.60;;
36355;SDS011;22384;54.302;18.596;2023-04-24T08:21:07;18.33;;;12.07;;
36355;SDS011;22384;54.302;18.596;2023-04-24T08:23:33;15.77;;;11.55;;
36355;SDS011;22384;54.302;18.596;2023-04-24T08:25:59;15.00;;;10.15;;
36355;SDS011;22384;54.302;18.596;2023-04-24T08:28:25;16.50;;;11.88;;
36355;SDS011;22384;54.302;18.596;2023-04-24T08:30:51;19.70;;;12.90;;
36355;SDS011;22384;54.302;18.596;2023-04-24T08:33:20;17.38;;;13.27;;
36355;SDS011;22384;54.302;18.596;2023-04-24T08:35:46;15.68;;;12.07;;
36355;SDS011;22384;54.302;18.596;2023-04-24T08:38:12;20.00;;;12.75;;
36355;SDS011;22384;54.302;18.596;2023-04-24T08:40:38;18.90;;;12.90;;
36355;SDS011;22384;54.302;18.596;2023-04-24T08:43:04;21.60;;;13.27;;
36355;SDS011;22384;54.302;18.596;2023-04-24T08:45:31;17.08;;;12.82;;
36355;SDS011;22384;54.302;18.596;2023-04-24T08:47:58;15.98;;;12.80;;
36355;SDS011;22384;54.302;18.596;2023-04-24T08:50:24;26.42;;;15.65;;
36355;SDS011;22384;54.302;18.596;2023-04-24T08:52:50;23.30;;;15.13;;
36355;SDS011;22384;54.302;18.596;2023-04-24T08:55:18;20.90;;;14.60;;
36355;SDS011;22384;54.302;18.596;2023-04-24T08:57:45;19.88;;;14.15;;
36355;SDS011;22384;54.302;18.596;2023-04-24T09:00:14;20.95;;;14.30;;
36355;SDS011;22384;54.302;18.596;2023-04-24T09:02:43;21.95;;;14.93;;
36355;SDS011;22384;54.302;18.596;2023-04-24T09:05:09;21.63;;;16.08;;
36355;SDS011;22384;54.302;18.596;2023-04-24T09:07:36;22.63;;;15.90;;
36355;SDS011;22384;54.302;18.596;2023-04-24T09:10:05;20.50;;;14.32;;
36355;SDS011;22384;54.302;18.596;2023-04-24T09:12:32;28.50;;;20.02;;
36355;SDS011;22384;54.302;18.596;2023-04-24T09:14:59;22.15;;;16.08;;
36355;SDS011;22384;54.302;18.596;2023-04-24T09:17:26;22.88;;;15.57;;
36355;SDS011;22384;54.302;18.596;2023-04-24T09:19:53;20.85;;;14.40;;
36355;SDS011;22384;54.302;18.596;2023-04-24T09:22:19;25.48;;;15.02;;
36355;SDS011;22384;54.302;18.596;2023-04-24T09:24:45;23.40;;;17.25;;
36355;SDS011;22384;54.302;18.596;2023-04-24T09:27:11;25.92;;;17.98;;
36355;SDS011;22384;54.302;18.596;2023-04-24T09:29:38;23.55;;;16.75;;
36355;SDS011;22384;54.302;18.596;2023-04-24T09:32:17;26.17;;;16.48;;
36355;SDS011;22384;54.302;18.596;2023-04-24T09:34:46;29.95;;;17.75;;
36355;SDS011;22384;54.302;18.596;2023-04-24T09:37:25;24.90;;;17.42;;
36355;SDS011;22384;54.302;18.596;2023-04-24T09:42:19;24.20;;;17.40;;
36355;SDS011;22384;54.302;18.596;2023-04-24T09:44:45;24.00;;;17.67;;
36355;SDS011;22384;54.302;18.596;2023-04-24T09:47:14;31.73;;;22.55;;
36355;SDS011;22384;54.302;18.596;2023-04-24T09:49:41;29.13;;;20.13;;
36355;SDS011;22384;54.302;18.596;2023-04-24T09:52:09;23.80;;;16.05;;
36355;SDS011;22384;54.302;18.596;2023-04-24T09:54:36;24.42;;;18.08;;
36355;SDS011;22384;54.302;18.596;2023-04-24T09:57:02;29.83;;;20.77;;
36355;SDS011;22384;54.302;18.596;2023-04-24T09:59:28;25.75;;;16.67;;
36355;SDS011;22384;54.302;18.596;2023-04-24T10:01:55;33.90;;;22.10;;
36355;SDS011;22384;54.302;18.596;2023-04-24T10:04:23;24.15;;;18.15;;
36355;SDS011;22384;54.302;18.596;2023-04-24T10:06:50;24.27;;;17.35;;
36355;SDS011;22384;54.302;18.596;2023-04-24T10:09:16;24.30;;;16.15;;
36355;SDS011;22384;54.302;18.596;2023-04-24T10:11:44;25.80;;;16.17;;
36355;SDS011;22384;54.302;18.596;2023-04-24T10:14:12;28.75;;;17.15;;
36355;SDS011;22384;54.302;18.596;2023-04-24T10:16:39;26.15;;;15.75;;
36355;SDS011;22384;54.302;18.596;2023-04-24T10:19:05;27.73;;;16.55;;
36355;SDS011;22384;54.302;18.596;2023-04-24T10:21:32;24.63;;;17.00;;
36355;SDS011;22384;54.302;18.596;2023-04-24T10:23:58;22.40;;;15.98;;
36355;SDS011;22384;54.302;18.596;2023-04-24T10:26:25;24.15;;;16.20;;
36355;SDS011;22384;54.302;18.596;2023-04-24T10:28:52;26.55;;;15.98;;
36355;SDS011;22384;54.302;18.596;2023-04-24T10:31:19;21.45;;;15.50;;
36355;SDS011;22384;54.302;18.596;2023-04-24T10:33:46;21.08;;;15.93;;
36355;SDS011;22384;54.302;18.596;2023-04-24T10:36:12;22.40;;;15.82;;
36355;SDS011;22384;54.302;18.596;2023-04-24T10:38:39;22.98;;;15.02;;
36355;SDS011;22384;54.302;18.596;2023-04-24T10:41:07;25.38;;;15.13;;
36355;SDS011;22384;54.302;18.596;2023-04-24T10:43:34;26.75;;;14.88;;
36355;SDS011;22384;54.302;18.596;2023-04-24T10:46:01;22.40;;;15.45;;
36355;SDS011;22384;54.302;18.596;2023-04-24T10:48:28;20.90;;;13.23;;
36355;SDS011;22384;54.302;18.596;2023-04-24T10:50:54;20.13;;;14.55;;
36355;SDS011;22384;54.302;18.596;2023-04-24T10:53:21;20.13;;;13.95;;
36355;SDS011;22384;54.302;18.596;2023-04-24T10:55:52;17.00;;;12.70;;
36355;SDS011;22384;54.302;18.596;2023-04-24T10:58:23;20.27;;;13.77;;
36355;SDS011;22384;54.302;18.596;2023-04-24T11:00:59;22.38;;;14.30;;
36355;SDS011;22384;54.302;18.596;2023-04-24T11:03:29;19.63;;;14.85;;
36355;SDS011;22384;54.302;18.596;2023-04-24T11:11:11;19.95;;;12.98;;
36355;SDS011;22384;54.302;18.596;2023-04-24T11:16:31;15.82;;;12.18;;
36355;SDS011;22384;54.302;18.596;2023-04-24T11:21:38;18.60;;;13.50;;
36355;SDS011;22384;54.302;18.596;2023-04-24T11:27:11;17.45;;;12.05;;
36355;SDS011;22384;54.302;18.596;2023-04-24T11:32:23;17.88;;;11.32;;
36355;SDS011;22384;54.302;18.596;2023-04-24T11:34:53;16.65;;;10.63;;
36355;SDS011;22384;54.302;18.596;2023-04-24T11:37:21;13.20;;;9.52;;
36355;SDS011;22384;54.302;18.596;2023-04-24T11:39:49;11.95;;;6.43;;
36355;SDS011;22384;54.302;18.596;2023-04-24T11:42:15;9.38;;;5.43;;
36355;SDS011;22384;54.302;18.596;2023-04-24T11:44:42;9.52;;;5.78;;
36355;SDS011;22384;54.302;18.596;2023-04-24T11:47:08;7.70;;;4.70;;
36355;SDS011;22384;54.302;18.596;2023-04-24T11:49:37;15.05;;;5.25;;
36355;SDS011;22384;54.302;18.596;2023-04-24T11:52:03;9.15;;;4.72;;
36355;SDS011;22384;54.302;18.596;2023-04-24T11:54:30;5.93;;;4.20;;
36355;SDS011;22384;54.302;18.596;2023-04-24T11:56:56;6.47;;;3.90;;
36355;SDS011;22384;54.302;18.596;2023-04-24T11:59:23;5.72;;;4.03;;
36355;SDS011;22384;54.302;18.596;2023-04-24T12:01:49;5.50;;;3.80;;
36355;SDS011;22384;54.302;18.596;2023-04-24T12:04:17;9.35;;;4.22;;
36355;SDS011;22384;54.302;18.596;2023-04-24T12:06:59;15.88;;;5.50;;
36355;SDS011;22384;54.302;18.596;2023-04-24T12:09:26;10.40;;;3.80;;
36355;SDS011;22384;54.302;18.596;2023-04-24T12:11:52;6.78;;;3.70;;
36355;SDS011;22384;54.302;18.596;2023-04-24T12:14:19;8.00;;;4.55;;
36355;SDS011;22384;54.302;18.596;2023-04-24T12:16:47;7.70;;;4.07;;
36355;SDS011;22384;54.302;18.596;2023-04-24T12:19:17;6.15;;;3.28;;
36355;SDS011;22384;54.302;18.596;2023-04-24T12:21:43;4.75;;;3.50;;
36355;SDS011;22384;54.302;18.596;2023-04-24T12:24:09;6.93;;;3.50;;
36355;SDS011;22384;54.302;18.596;2023-04-24T12:26:35;12.32;;;3.78;;
36355;SDS011;22384;54.302;18.596;2023-04-24T12:29:02;6.13;;;3.40;;
36355;SDS011;22384;54.302;18.596;2023-04-24T12:31:29;13.40;;;3.50;;
36355;SDS011;22384;54.302;18.596;2023-04-24T12:33:57;6.15;;;2.78;;
36355;SDS011;22384;54.302;18.596;2023-04-24T12:36:23;5.32;;;2.97;;
36355;SDS011;22384;54.302;18.596;2023-04-24T12:38:52;9.60;;;3.25;;
36355;SDS011;22384;54.302;18.596;2023-04-24T12:41:18;6.22;;;2.67;;
36355;SDS011;22384;54.302;18.596;2023-04-24T12:43:51;5.38;;;3.00;;
36355;SDS011;22384;54.302;18.596;2023-04-24T12:46:18;5.10;;;3.08;;
36355;SDS011;22384;54.302;18.596;2023-04-24T12:48:44;4.47;;;3.00;;
36355;SDS011;22384;54.302;18.596;2023-04-24T12:51:10;6.93;;;3.10;;
36355;SDS011;22384;54.302;18.596;2023-04-24T12:53:36;4.68;;;2.97;;
36355;SDS011;22384;54.302;18.596;2023-04-24T12:56:02;6.85;;;2.95;;
36355;SDS011;22384;54.302;18.596;2023-04-24T12:58:28;6.22;;;2.80;;
36355;SDS011;22384;54.302;18.596;2023-04-24T13:00:54;8.68;;;4.25;;
36355;SDS011;22384;54.302;18.596;2023-04-24T13:03:20;3.10;;;2.80;;
36355;SDS011;22384;54.302;18.596;2023-04-24T13:05:47;4.30;;;2.83;;
36355;SDS011;22384;54.302;18.596;2023-04-24T13:08:13;3.63;;;2.70;;
36355;SDS011;22384;54.302;18.596;2023-04-24T13:10:39;5.97;;;2.83;;
36355;SDS011;22384;54.302;18.596;2023-04-24T13:13:06;4.82;;;3.17;;
36355;SDS011;22384;54.302;18.596;2023-04-24T13:15:32;4.93;;;2.95;;
36355;SDS011;22384;54.302;18.596;2023-04-24T13:17:58;5.65;;;2.83;;
36355;SDS011;22384;54.302;18.596;2023-04-24T13:20:24;4.30;;;2.60;;
36355;SDS011;22384;54.302;18.596;2023-04-24T13:22:51;10.05;;;3.60;;
36355;SDS011;22384;54.302;18.596;2023-04-24T13:25:17;5.43;;;3.00;;
36355;SDS011;22384;54.302;18.596;2023-04-24T13:27:43;8.75;;;2.80;;
36355;SDS011;22384;54.302;18.596;2023-04-24T13:30:09;5.95;;;2.75;;
36355;SDS011;22384;54.302;18.596;2023-04-24T13:32:35;5.85;;;2.88;;
36355;SDS011;22384;54.302;18.596;2023-04-24T13:35:01;7.22;;;2.72;;
36355;SDS011;22384;54.302;18.596;2023-04-24T13:37:27;4.80;;;2.72;;
36355;SDS011;22384;54.302;18.596;2023-04-24T13:39:53;4.95;;;2.40;;
36355;SDS011;22384;54.302;18.596;2023-04-24T13:42:19;5.47;;;2.55;;
36355;SDS011;22384;54.302;18.596;2023-04-24T13:44:45;4.28;;;2.33;;
36355;SDS011;22384;54.302;18.596;2023-04-24T13:47:11;7.72;;;3.35;;
36355;SDS011;22384;54.302;18.596;2023-04-24T13:49:37;3.60;;;2.67;;
36355;SDS011;22384;54.302;18.596;2023-04-24T13:52:03;3.97;;;2.40;;
36355;SDS011;22384;54.302;18.596;2023-04-24T13:54:30;4.68;;;2.95;;
36355;SDS011;22384;54.302;18.596;2023-04-24T13:56:57;6.07;;;2.50;;
36355;SDS011;22384;54.302;18.596;2023-04-24T13:59:23;7.57;;;2.50;;
36355;SDS011;22384;54.302;18.596;2023-04-24T14:01:50;6.40;;;2.75;;
36355;SDS011;22384;54.302;18.596;2023-04-24T14:04:16;5.90;;;3.05;;
36355;SDS011;22384;54.302;18.596;2023-04-24T14:06:42;6.75;;;3.22;;
36355;SDS011;22384;54.302;18.596;2023-04-24T14:09:08;3.92;;;3.10;;
36355;SDS011;22384;54.302;18.596;2023-04-24T14:11:34;3.70;;;2.80;;
36355;SDS011;22384;54.302;18.596;2023-04-24T14:14:00;4.93;;;2.47;;
36355;SDS011;22384;54.302;18.596;2023-04-24T14:16:26;12.00;;;3.20;;
36355;SDS011;22384;54.302;18.596;2023-04-24T14:18:52;5.25;;;2.70;;
36355;SDS011;22384;54.302;18.596;2023-04-24T14:21:18;6.57;;;3.13;;
36355;SDS011;22384;54.302;18.596;2023-04-24T14:23:44;8.82;;;2.92;;
36355;SDS011;22384;54.302;18.596;2023-04-24T14:26:13;5.72;;;4.28;;
36355;SDS011;22384;54.302;18.596;2023-04-24T14:28:40;5.97;;;3.20;;